createdAt,value
2017-08-19T00:00:03.422Z,15.99
2017-08-19T00:00:31.421Z,16.02
2017-08-19T00:00:59.578Z,15.99
2017-08-19T00:01:27.964Z,16
2017-08-19T00:01:56.078Z,16.04
2017-08-19T00:02:24.128Z,15.99
2017-08-19T00:02:52.359Z,16.1
2017-08-19T00:03:20.436Z,16.13
2017-08-19T00:03:48.760Z,16.02
2017-08-19T00:04:16.962Z,16.16
2017-08-19T00:04:45.035Z,16.11
2017-08-19T00:05:13.271Z,16.13
2017-08-19T00:05:41.432Z,16.06
2017-08-19T00:06:09.579Z,16.11
2017-08-19T00:06:37.611Z,16.04
2017-08-19T00:07:05.605Z,16.08
2017-08-19T00:07:33.641Z,16.06
2017-08-19T00:08:01.629Z,16.17
2017-08-19T00:08:29.672Z,16.11
2017-08-19T00:08:57.828Z,16.18
2017-08-19T00:09:25.955Z,16.04
2017-08-19T00:09:54.109Z,16.13
2017-08-19T00:10:22.287Z,16.14
2017-08-19T00:10:50.474Z,16.14
2017-08-19T00:11:18.641Z,16.04
2017-08-19T00:11:46.912Z,16.16
2017-08-19T00:12:15.038Z,16.14
2017-08-19T00:12:43.284Z,16.07
2017-08-19T00:13:11.443Z,16.13
2017-08-19T00:13:39.605Z,16.08
2017-08-19T00:14:07.804Z,16.11
2017-08-19T00:14:36.018Z,16.16
2017-08-19T00:15:04.278Z,16.14
2017-08-19T00:15:32.425Z,16.17
2017-08-19T00:16:00.474Z,16.08
2017-08-19T00:16:28.622Z,16.16
2017-08-19T00:16:56.861Z,16.13
2017-08-19T00:17:25.106Z,16.16
2017-08-19T00:17:53.352Z,16.17
2017-08-19T00:18:21.525Z,16.14
2017-08-19T00:18:49.685Z,16.17
2017-08-19T00:19:17.822Z,16.16
2017-08-19T00:19:46.090Z,16.08
2017-08-19T00:20:14.330Z,16.13
2017-08-19T00:20:42.458Z,16.11
2017-08-19T00:21:10.665Z,16.11
2017-08-19T00:21:38.769Z,16.17
2017-08-19T00:22:06.984Z,16.08
2017-08-19T00:22:35.047Z,16.16
2017-08-19T00:23:03.275Z,16.14
2017-08-19T00:23:31.446Z,16.14
2017-08-19T00:23:59.659Z,16.21
2017-08-19T00:24:27.728Z,16.11
2017-08-19T00:24:55.901Z,16.22
2017-08-19T00:25:24.167Z,16.08
2017-08-19T00:25:52.341Z,16.14
2017-08-19T00:26:20.482Z,16.14
2017-08-19T00:26:48.734Z,16.08
2017-08-19T00:27:17.048Z,16.14
2017-08-19T00:27:45.327Z,16.11
2017-08-19T00:28:13.557Z,16.16
2017-08-19T00:28:41.835Z,16.11
2017-08-19T00:29:10.149Z,16.16
2017-08-19T00:29:38.364Z,16.13
2017-08-19T00:30:06.506Z,16.17
2017-08-19T00:30:34.687Z,16.13
2017-08-19T00:31:02.783Z,16.1
2017-08-19T00:31:31.076Z,16.1
2017-08-19T00:31:59.118Z,16.13
2017-08-19T00:32:27.358Z,16.1
2017-08-19T00:32:55.638Z,16.13
2017-08-19T00:33:23.793Z,16.13
2017-08-19T00:33:51.938Z,16.08
2017-08-19T00:34:20.219Z,16.1
2017-08-19T00:34:48.333Z,16.25
2017-08-19T00:35:16.578Z,16.16
2017-08-19T00:35:44.870Z,16.13
2017-08-19T00:36:13.003Z,16.11
2017-08-19T00:36:40.960Z,16.14
2017-08-19T00:37:09.241Z,16.08
2017-08-19T00:37:37.425Z,16.1
2017-08-19T00:38:05.689Z,16.13
2017-08-19T00:38:33.939Z,16.1
2017-08-19T00:39:02.157Z,16.13
2017-08-19T00:39:30.497Z,16.16
2017-08-19T00:39:58.601Z,16.1
2017-08-19T00:40:26.696Z,16.1
2017-08-19T00:40:54.950Z,16.18
2017-08-19T00:41:23.217Z,16.14
2017-08-19T00:41:51.282Z,16.13
2017-08-19T00:42:19.573Z,16.22
2017-08-19T00:42:47.755Z,16.17
2017-08-19T00:43:16.009Z,16.16
2017-08-19T00:43:44.149Z,16.27
2017-08-19T00:44:12.342Z,16.1
2017-08-19T00:44:40.667Z,16.21
2017-08-19T00:45:08.622Z,16.21
2017-08-19T00:45:36.900Z,16.17
2017-08-19T00:46:05.156Z,16.16
2017-08-19T00:46:33.447Z,16.11
2017-08-19T00:47:01.583Z,16.16
2017-08-19T00:47:29.807Z,16.1
2017-08-19T00:47:58.051Z,16.14
2017-08-19T00:48:26.238Z,16.1
2017-08-19T00:48:54.520Z,16.11
2017-08-19T00:49:22.558Z,16.13
2017-08-19T00:49:50.669Z,16.14
2017-08-19T00:50:18.930Z,16.1
2017-08-19T00:50:47.043Z,16.18
2017-08-19T00:51:15.005Z,16.11
2017-08-19T00:51:43.131Z,16.1
2017-08-19T00:52:11.282Z,16.14
2017-08-19T00:52:39.403Z,16.14
2017-08-19T00:53:07.473Z,16.13
2017-08-19T00:53:35.637Z,16.1
2017-08-19T00:54:03.742Z,16.13
2017-08-19T00:54:31.991Z,16.1
2017-08-19T00:54:59.846Z,16.16
2017-08-19T00:55:28.075Z,16.13
2017-08-19T00:55:56.264Z,16.16
2017-08-19T00:56:24.499Z,16.21
2017-08-19T00:56:52.584Z,16.13
2017-08-19T00:57:20.646Z,16.13
2017-08-19T00:57:48.748Z,16.21
2017-08-19T00:58:16.931Z,16.16
2017-08-19T00:58:45.145Z,16.18
2017-08-19T00:59:13.192Z,16.17
2017-08-19T00:59:41.371Z,16.13
2017-08-19T01:00:09.621Z,16.1
2017-08-19T01:00:37.720Z,16.11
2017-08-19T01:01:05.849Z,16.1
2017-08-19T01:01:34.078Z,16.08
2017-08-19T01:02:02.289Z,16.11
2017-08-19T01:02:30.457Z,16.11
2017-08-19T01:02:58.745Z,16.16
2017-08-19T01:03:26.770Z,16.16
2017-08-19T01:03:54.993Z,16.13
2017-08-19T01:04:23.079Z,16.11
2017-08-19T01:04:51.428Z,16.13
2017-08-19T01:05:19.605Z,16.02
2017-08-19T01:05:47.726Z,16.16
2017-08-19T01:06:15.776Z,16.18
2017-08-19T01:06:44.019Z,16.06
2017-08-19T01:07:12.263Z,16.13
2017-08-19T01:07:40.542Z,16.11
2017-08-19T01:08:08.681Z,16.08
2017-08-19T01:08:36.774Z,16.17
2017-08-19T01:09:04.910Z,16.16
2017-08-19T01:09:33.039Z,16.17
2017-08-19T01:10:01.259Z,16.18
2017-08-19T01:10:29.292Z,16.07
2017-08-19T01:10:57.459Z,16.04
2017-08-19T01:11:25.754Z,16.11
2017-08-19T01:11:53.976Z,16.17
2017-08-19T01:12:22.183Z,16.14
2017-08-19T01:12:50.447Z,16.16
2017-08-19T01:13:18.575Z,16.04
2017-08-19T01:13:46.801Z,16.02
2017-08-19T01:14:14.815Z,16.08
2017-08-19T01:14:42.919Z,16.04
2017-08-19T01:15:11.145Z,16.16
2017-08-19T01:15:39.275Z,16.17
2017-08-19T01:16:07.323Z,16.16
2017-08-19T01:16:35.440Z,16.04
2017-08-19T01:17:03.577Z,16.17
2017-08-19T01:17:31.723Z,16.14
2017-08-19T01:17:59.812Z,16.14
2017-08-19T01:18:28.023Z,16.16
2017-08-19T01:18:56.257Z,16.16
2017-08-19T01:19:24.379Z,16.14
2017-08-19T01:19:52.537Z,16.14
2017-08-19T01:20:20.702Z,16.11
2017-08-19T01:20:48.870Z,16.18
2017-08-19T01:21:16.697Z,16.11
2017-08-19T01:21:44.913Z,16.16
2017-08-19T01:22:12.947Z,16.11
2017-08-19T01:22:40.981Z,16.13
2017-08-19T01:23:09.242Z,16.18
2017-08-19T01:23:37.378Z,16.17
2017-08-19T01:24:05.345Z,16.16
2017-08-19T01:24:33.495Z,16.21
2017-08-19T01:25:01.790Z,16.17
2017-08-19T01:25:29.888Z,16.17
2017-08-19T01:25:58.031Z,16.25
2017-08-19T01:26:26.140Z,16.13
2017-08-19T01:26:54.400Z,16.13
2017-08-19T01:27:22.592Z,16.17
2017-08-19T01:27:50.751Z,16.21
2017-08-19T01:28:18.892Z,16.13
2017-08-19T01:28:47.045Z,16.18
2017-08-19T01:29:15.319Z,16.25
2017-08-19T01:29:43.478Z,16.26
2017-08-19T01:30:11.698Z,16.17
2017-08-19T01:30:39.680Z,16.18
2017-08-19T01:31:07.752Z,16.18
2017-08-19T01:31:35.874Z,16.18
2017-08-19T01:32:03.930Z,16.16
2017-08-19T01:32:31.998Z,16.17
2017-08-19T01:33:00.064Z,16.25
2017-08-19T01:33:28.114Z,16.26
2017-08-19T01:33:56.258Z,16.32
2017-08-19T01:34:24.457Z,16.26
2017-08-19T01:34:52.587Z,16.26
2017-08-19T01:35:20.812Z,16.29
2017-08-19T01:35:48.981Z,16.3
2017-08-19T01:36:17.238Z,16.32
2017-08-19T01:36:45.400Z,16.34
2017-08-19T01:37:13.623Z,16.34
2017-08-19T01:37:41.748Z,16.26
2017-08-19T01:38:09.841Z,16.22
2017-08-19T01:38:37.878Z,16.27
2017-08-19T01:39:05.995Z,16.22
2017-08-19T01:39:34.219Z,16.3
2017-08-19T01:40:02.370Z,16.36
2017-08-19T01:40:30.509Z,16.25
2017-08-19T01:40:58.604Z,16.27
2017-08-19T01:41:26.761Z,16.26
2017-08-19T01:41:54.976Z,16.26
2017-08-19T01:42:23.247Z,16.22
2017-08-19T01:42:51.483Z,16.27
2017-08-19T01:43:19.536Z,16.1
2017-08-19T01:43:47.724Z,16.25
2017-08-19T01:44:15.963Z,16.18
2017-08-19T01:44:44.003Z,16.25
2017-08-19T01:45:12.326Z,16.18
2017-08-19T01:45:40.569Z,16.16
2017-08-19T01:46:08.651Z,16.27
2017-08-19T01:46:36.843Z,16.21
2017-08-19T01:47:05.095Z,16.22
2017-08-19T01:47:33.217Z,16.21
2017-08-19T01:48:01.306Z,16.22
2017-08-19T01:48:29.461Z,16.21
2017-08-19T01:48:57.487Z,16.18
2017-08-19T01:49:25.685Z,16.16
2017-08-19T01:49:53.895Z,16.17
2017-08-19T01:50:22.101Z,16.17
2017-08-19T01:50:50.282Z,16.25
2017-08-19T01:51:18.559Z,16.18
2017-08-19T01:51:46.806Z,16.22
2017-08-19T01:52:14.828Z,16.18
2017-08-19T01:52:42.983Z,16.26
2017-08-19T01:53:11.029Z,16.08
2017-08-19T01:53:39.058Z,16.11
2017-08-19T01:54:07.327Z,16.13
2017-08-19T01:54:35.457Z,16.13
2017-08-19T01:55:03.573Z,16.04
2017-08-19T01:55:31.930Z,16.02
2017-08-19T01:56:00.028Z,16.08
2017-08-19T01:56:28.067Z,16.1
2017-08-19T01:56:56.242Z,16.1
2017-08-19T01:57:24.394Z,16.04
2017-08-19T01:57:52.569Z,15.99
2017-08-19T01:58:20.729Z,16.02
2017-08-19T01:58:48.775Z,15.93
2017-08-19T01:59:16.923Z,15.93
2017-08-19T01:59:45.074Z,15.86
2017-08-19T02:00:13.217Z,15.89
2017-08-19T02:00:41.470Z,15.84
2017-08-19T02:01:10.019Z,15.83
2017-08-19T02:01:38.302Z,15.88
2017-08-19T02:02:06.585Z,15.88
2017-08-19T02:02:34.807Z,15.91
2017-08-19T02:03:02.787Z,15.89
2017-08-19T02:03:31.086Z,15.88
2017-08-19T02:03:59.205Z,15.8
2017-08-19T02:04:27.485Z,15.89
2017-08-19T02:04:55.628Z,15.83
2017-08-19T02:05:23.866Z,15.88
2017-08-19T02:05:52.202Z,15.88
2017-08-19T02:06:20.313Z,15.86
2017-08-19T02:06:48.514Z,15.86
2017-08-19T02:07:16.803Z,15.88
2017-08-19T02:07:44.939Z,15.92
2017-08-19T02:08:12.901Z,15.83
2017-08-19T02:08:41.110Z,15.91
2017-08-19T02:09:09.365Z,15.92
2017-08-19T02:09:37.532Z,15.89
2017-08-19T02:10:05.700Z,15.86
2017-08-19T02:10:33.932Z,15.84
2017-08-19T02:11:02.145Z,15.92
2017-08-19T02:11:30.262Z,15.88
2017-08-19T02:11:58.385Z,15.91
2017-08-19T02:12:26.659Z,15.89
2017-08-19T02:12:54.913Z,15.93
2017-08-19T02:13:23.143Z,15.92
2017-08-19T02:13:51.276Z,15.93
2017-08-19T02:14:19.438Z,15.93
2017-08-19T02:14:47.683Z,15.93
2017-08-19T02:15:15.707Z,15.96
2017-08-19T02:15:43.962Z,15.99
2017-08-19T02:16:12.008Z,15.96
2017-08-19T02:16:40.203Z,15.96
2017-08-19T02:17:08.323Z,16.08
2017-08-19T02:17:36.386Z,16.02
2017-08-19T02:18:04.573Z,16.04
2017-08-19T02:18:32.789Z,16.02
2017-08-19T02:19:00.825Z,16.04
2017-08-19T02:19:28.845Z,15.99
2017-08-19T02:19:57.049Z,15.96
2017-08-19T02:20:25.040Z,15.92
2017-08-19T02:20:53.481Z,16.04
2017-08-19T02:21:21.499Z,16.07
2017-08-19T02:21:49.601Z,16.1
2017-08-19T02:22:17.942Z,16.04
2017-08-19T02:22:46.145Z,16.02
2017-08-19T02:23:14.320Z,15.98
2017-08-19T02:23:42.571Z,16.06
2017-08-19T02:24:10.817Z,15.99
2017-08-19T02:24:39.070Z,15.98
2017-08-19T02:25:07.365Z,15.96
2017-08-19T02:25:35.526Z,16
2017-08-19T02:26:03.804Z,15.95
2017-08-19T02:26:31.989Z,15.95
2017-08-19T02:27:00.222Z,15.86
2017-08-19T02:27:28.444Z,15.92
2017-08-19T02:27:56.695Z,15.89
2017-08-19T02:28:24.883Z,15.86
2017-08-19T02:28:53.070Z,15.89
2017-08-19T02:29:21.209Z,15.84
2017-08-19T02:29:49.328Z,15.78
2017-08-19T02:30:17.548Z,15.73
2017-08-19T02:30:45.817Z,15.74
2017-08-19T02:31:14.121Z,15.78
2017-08-19T02:31:42.377Z,15.71
2017-08-19T02:32:10.490Z,15.65
2017-08-19T02:32:38.739Z,15.62
2017-08-19T02:33:06.987Z,15.7
2017-08-19T02:33:35.297Z,15.7
2017-08-19T02:34:03.590Z,15.65
2017-08-19T02:34:31.711Z,15.7
2017-08-19T02:34:59.949Z,15.68
2017-08-19T02:35:28.027Z,15.71
2017-08-19T02:35:56.342Z,15.71
2017-08-19T02:36:24.379Z,15.65
2017-08-19T02:36:52.452Z,15.65
2017-08-19T02:37:20.607Z,15.73
2017-08-19T02:37:48.811Z,15.65
2017-08-19T02:38:16.989Z,15.74
2017-08-19T02:38:45.203Z,15.73
2017-08-19T02:39:13.254Z,15.68
2017-08-19T02:39:41.464Z,15.63
2017-08-19T02:40:09.631Z,15.62
2017-08-19T02:40:37.875Z,15.59
2017-08-19T02:41:06.144Z,15.6
2017-08-19T02:41:34.226Z,15.53
2017-08-19T02:42:02.283Z,15.63
2017-08-19T02:42:30.636Z,15.6
2017-08-19T02:42:58.882Z,15.53
2017-08-19T02:43:27.061Z,15.44
2017-08-19T02:43:55.213Z,15.44
2017-08-19T02:44:23.373Z,15.56
2017-08-19T02:44:51.334Z,15.51
2017-08-19T02:45:19.600Z,15.6
2017-08-19T02:45:47.841Z,15.53
2017-08-19T02:46:16.055Z,15.53
2017-08-19T02:46:44.136Z,15.41
2017-08-19T02:47:12.109Z,15.55
2017-08-19T02:47:40.276Z,15.51
2017-08-19T02:48:08.409Z,15.49
2017-08-19T02:48:36.471Z,15.47
2017-08-19T02:49:04.774Z,15.41
2017-08-19T02:49:32.926Z,15.52
2017-08-19T02:50:01.068Z,15.52
2017-08-19T02:50:29.114Z,15.4
2017-08-19T02:50:57.244Z,15.49
2017-08-19T02:51:25.598Z,15.41
2017-08-19T02:51:53.836Z,15.37
2017-08-19T02:52:21.992Z,15.35
2017-08-19T02:52:50.102Z,15.38
2017-08-19T02:53:18.274Z,15.51
2017-08-19T02:53:46.510Z,15.35
2017-08-19T02:54:14.588Z,15.4
2017-08-19T02:54:42.837Z,15.37
2017-08-19T02:55:10.968Z,15.38
2017-08-19T02:55:39.121Z,15.37
2017-08-19T02:56:07.291Z,15.37
2017-08-19T02:56:35.512Z,15.4
2017-08-19T02:57:03.781Z,15.37
2017-08-19T02:57:31.920Z,15.44
2017-08-19T02:57:59.938Z,15.4
2017-08-19T02:58:28.144Z,15.41
2017-08-19T02:58:56.358Z,15.35
2017-08-19T02:59:24.518Z,15.3
2017-08-19T02:59:52.567Z,15.33
2017-08-19T03:00:20.785Z,15.3
2017-08-19T03:00:48.800Z,15.37
2017-08-19T03:01:17.026Z,15.3
2017-08-19T03:01:45.299Z,15.3
2017-08-19T03:02:13.526Z,15.34
2017-08-19T03:02:41.593Z,15.31
2017-08-19T03:03:09.859Z,15.22
2017-08-19T03:03:38.130Z,15.3
2017-08-19T03:04:06.362Z,15.27
2017-08-19T03:04:34.493Z,15.16
2017-08-19T03:05:02.719Z,15.13
2017-08-19T03:05:30.989Z,15.18
2017-08-19T03:05:59.080Z,15.18
2017-08-19T03:06:27.205Z,15.16
2017-08-19T03:06:55.495Z,15.16
2017-08-19T03:07:23.620Z,15.12
2017-08-19T03:07:51.823Z,15.12
2017-08-19T03:08:19.981Z,15.1
2017-08-19T03:08:48.270Z,15.12
2017-08-19T03:09:16.393Z,15.15
2017-08-19T03:09:44.500Z,15.07
2017-08-19T03:10:12.631Z,15.12
2017-08-19T03:10:40.895Z,15.12
2017-08-19T03:11:09.015Z,15.15
2017-08-19T03:11:37.289Z,15.1
2017-08-19T03:12:05.442Z,15.1
2017-08-19T03:12:33.491Z,15.15
2017-08-19T03:13:01.696Z,15.1
2017-08-19T03:13:29.840Z,15.07
2017-08-19T03:13:58.038Z,15.1
2017-08-19T03:14:26.214Z,15.08
2017-08-19T03:14:54.484Z,15.12
2017-08-19T03:15:22.644Z,15.07
2017-08-19T03:15:50.779Z,15.08
2017-08-19T03:16:18.723Z,15.07
2017-08-19T03:16:47.004Z,15.07
2017-08-19T03:17:15.247Z,15.07
2017-08-19T03:17:43.464Z,15.01
2017-08-19T03:18:11.608Z,15.02
2017-08-19T03:18:39.841Z,15.07
2017-08-19T03:19:08.017Z,15
2017-08-19T03:19:36.201Z,15.04
2017-08-19T03:20:04.455Z,15.07
2017-08-19T03:20:32.684Z,15.04
2017-08-19T03:21:00.912Z,15.02
2017-08-19T03:21:28.977Z,15.04
2017-08-19T03:21:57.278Z,14.98
2017-08-19T03:22:25.499Z,14.93
2017-08-19T03:22:53.532Z,14.85
2017-08-19T03:23:21.671Z,15
2017-08-19T03:23:49.738Z,14.89
2017-08-19T03:24:17.961Z,14.85
2017-08-19T03:24:46.198Z,15
2017-08-19T03:25:14.415Z,14.94
2017-08-19T03:25:42.655Z,14.95
2017-08-19T03:26:10.693Z,14.97
2017-08-19T03:26:39.100Z,14.89
2017-08-19T03:27:07.282Z,14.87
2017-08-19T03:27:35.446Z,14.97
2017-08-19T03:28:03.595Z,14.97
2017-08-19T03:28:31.646Z,14.97
2017-08-19T03:28:59.909Z,14.95
2017-08-19T03:29:27.981Z,14.93
2017-08-19T03:29:56.120Z,14.97
2017-08-19T03:30:24.274Z,14.85
2017-08-19T03:30:52.363Z,14.95
2017-08-19T03:31:20.424Z,14.95
2017-08-19T03:31:48.760Z,14.98
2017-08-19T03:32:16.904Z,14.98
2017-08-19T03:32:45.092Z,14.95
2017-08-19T03:33:13.357Z,14.97
2017-08-19T03:33:41.630Z,15.01
2017-08-19T03:34:09.842Z,15.01
2017-08-19T03:34:37.765Z,14.97
2017-08-19T03:35:05.884Z,14.98
2017-08-19T03:35:33.950Z,15
2017-08-19T03:36:01.997Z,14.97
2017-08-19T03:36:30.078Z,14.95
2017-08-19T03:36:58.421Z,14.87
2017-08-19T03:37:26.650Z,14.85
2017-08-19T03:37:54.881Z,14.85
2017-08-19T03:38:23.111Z,14.98
2017-08-19T03:38:51.250Z,14.97
2017-08-19T03:39:19.485Z,14.95
2017-08-19T03:39:47.548Z,15.02
2017-08-19T03:40:15.805Z,15.08
2017-08-19T03:40:43.923Z,15.07
2017-08-19T03:41:11.997Z,15.1
2017-08-19T03:41:40.081Z,15.2
2017-08-19T03:42:08.289Z,15.15
2017-08-19T03:42:36.403Z,15.18
2017-08-19T03:43:04.640Z,15.18
2017-08-19T03:43:32.907Z,15.23
2017-08-19T03:44:01.163Z,15.25
2017-08-19T03:44:29.273Z,15.27
2017-08-19T03:44:57.545Z,15.3
2017-08-19T03:45:25.723Z,15.25
2017-08-19T03:45:53.870Z,15.33
2017-08-19T03:46:22.112Z,15.34
2017-08-19T03:46:50.342Z,15.31
2017-08-19T03:47:18.686Z,15.31
2017-08-19T03:47:46.801Z,15.4
2017-08-19T03:48:15.042Z,15.41
2017-08-19T03:48:43.322Z,15.35
2017-08-19T03:49:11.383Z,15.47
2017-08-19T03:49:39.579Z,15.45
2017-08-19T03:50:07.686Z,15.45
2017-08-19T03:50:35.896Z,15.55
2017-08-19T03:51:03.908Z,15.53
2017-08-19T03:51:32.064Z,15.58
2017-08-19T03:52:00.094Z,15.55
2017-08-19T03:52:28.155Z,15.55
2017-08-19T03:52:56.340Z,15.55
2017-08-19T03:53:24.611Z,15.53
2017-08-19T03:53:52.839Z,15.55
2017-08-19T03:54:20.988Z,15.55
2017-08-19T03:54:49.001Z,15.58
2017-08-19T03:55:17.050Z,15.59
2017-08-19T03:55:45.109Z,15.6
2017-08-19T03:56:13.264Z,15.47
2017-08-19T03:56:41.471Z,15.59
2017-08-19T03:57:09.863Z,15.56
2017-08-19T03:57:38.115Z,15.58
2017-08-19T03:58:06.231Z,15.52
2017-08-19T03:58:34.316Z,15.53
2017-08-19T03:59:02.429Z,15.53
2017-08-19T03:59:30.485Z,15.53
2017-08-19T03:59:58.540Z,15.59
2017-08-19T04:00:26.814Z,15.58
2017-08-19T04:00:54.860Z,15.58
2017-08-19T04:01:23.116Z,15.59
2017-08-19T04:01:51.365Z,15.58
2017-08-19T04:02:19.638Z,15.52
2017-08-19T04:02:47.855Z,15.56
2017-08-19T04:03:15.904Z,15.56
2017-08-19T04:03:44.097Z,15.51
2017-08-19T04:04:12.123Z,15.59
2017-08-19T04:04:40.345Z,15.45
2017-08-19T04:05:08.455Z,15.49
2017-08-19T04:05:36.469Z,15.59
2017-08-19T04:06:04.496Z,15.53
2017-08-19T04:06:32.439Z,15.55
2017-08-19T04:07:00.524Z,15.55
2017-08-19T04:07:28.782Z,15.49
2017-08-19T04:07:56.822Z,15.49
2017-08-19T04:08:24.999Z,15.6
2017-08-19T04:08:53.343Z,15.58
2017-08-19T04:09:21.569Z,15.53
2017-08-19T04:09:49.679Z,15.56
2017-08-19T04:10:17.836Z,15.55
2017-08-19T04:10:45.902Z,15.59
2017-08-19T04:11:14.014Z,15.65
2017-08-19T04:11:42.258Z,15.63
2017-08-19T04:12:10.503Z,15.67
2017-08-19T04:12:38.792Z,15.63
2017-08-19T04:13:07.017Z,15.65
2017-08-19T04:13:35.286Z,15.6
2017-08-19T04:14:03.327Z,15.75
2017-08-19T04:14:31.474Z,15.67
2017-08-19T04:14:59.606Z,15.63
2017-08-19T04:15:27.682Z,15.7
2017-08-19T04:15:55.796Z,15.71
2017-08-19T04:16:23.962Z,15.71
2017-08-19T04:16:52.243Z,15.7
2017-08-19T04:17:20.445Z,15.68
2017-08-19T04:17:48.404Z,15.6
2017-08-19T04:18:16.602Z,15.62
2017-08-19T04:18:44.706Z,15.68
2017-08-19T04:19:12.836Z,15.71
2017-08-19T04:19:40.998Z,15.65
2017-08-19T04:20:09.152Z,15.67
2017-08-19T04:20:37.256Z,15.71
2017-08-19T04:21:05.452Z,15.71
2017-08-19T04:21:33.678Z,15.63
2017-08-19T04:22:01.837Z,15.65
2017-08-19T04:22:29.955Z,15.65
2017-08-19T04:22:58.115Z,15.73
2017-08-19T04:23:26.095Z,15.65
2017-08-19T04:23:54.149Z,15.65
2017-08-19T04:24:22.277Z,15.65
2017-08-19T04:24:50.416Z,15.65
2017-08-19T04:25:18.558Z,15.7
2017-08-19T04:25:46.684Z,15.73
2017-08-19T04:26:14.737Z,15.62
2017-08-19T04:26:42.980Z,15.63
2017-08-19T04:27:11.174Z,15.7
2017-08-19T04:27:39.346Z,15.59
2017-08-19T04:28:07.381Z,15.63
2017-08-19T04:28:35.434Z,15.71
2017-08-19T04:29:03.701Z,15.7
2017-08-19T04:29:31.915Z,15.59
2017-08-19T04:29:59.971Z,15.7
2017-08-19T04:30:28.104Z,15.67
2017-08-19T04:30:56.378Z,15.67
2017-08-19T04:31:24.606Z,15.68
2017-08-19T04:31:52.782Z,15.62
2017-08-19T04:32:20.808Z,15.63
2017-08-19T04:32:48.985Z,15.67
2017-08-19T04:33:17.056Z,15.65
2017-08-19T04:33:45.281Z,15.63
2017-08-19T04:34:13.363Z,15.67
2017-08-19T04:34:41.604Z,15.6
2017-08-19T04:35:09.551Z,15.67
2017-08-19T04:35:37.702Z,15.6
2017-08-19T04:36:05.873Z,15.68
2017-08-19T04:36:34.147Z,15.67
2017-08-19T04:37:02.230Z,15.63
2017-08-19T04:37:30.487Z,15.67
2017-08-19T04:37:58.772Z,15.63
2017-08-19T04:38:26.867Z,15.73
2017-08-19T04:38:55.074Z,15.73
2017-08-19T04:39:23.248Z,15.71
2017-08-19T04:39:51.286Z,15.68
2017-08-19T04:40:19.358Z,15.65
2017-08-19T04:40:47.503Z,15.68
2017-08-19T04:41:15.679Z,15.71
2017-08-19T04:41:43.748Z,15.68
2017-08-19T04:42:11.899Z,15.71
2017-08-19T04:42:40.046Z,15.75
2017-08-19T04:43:08.201Z,15.75
2017-08-19T04:43:36.325Z,15.73
2017-08-19T04:44:04.470Z,15.75
2017-08-19T04:44:32.612Z,15.74
2017-08-19T04:45:00.977Z,15.71
2017-08-19T04:45:29.279Z,15.81
2017-08-19T04:45:57.338Z,15.84
2017-08-19T04:46:25.602Z,15.78
2017-08-19T04:46:53.833Z,15.75
2017-08-19T04:47:21.773Z,15.78
2017-08-19T04:47:50.048Z,15.83
2017-08-19T04:48:18.105Z,15.86
2017-08-19T04:48:45.934Z,15.83
2017-08-19T04:49:14.064Z,15.89
2017-08-19T04:49:42.347Z,15.83
2017-08-19T04:50:10.433Z,15.88
2017-08-19T04:50:38.591Z,15.83
2017-08-19T04:51:06.669Z,15.88
2017-08-19T04:51:34.789Z,15.88
2017-08-19T04:52:02.697Z,15.88
2017-08-19T04:52:30.860Z,15.96
2017-08-19T04:52:58.974Z,15.98
2017-08-19T04:53:26.952Z,15.96
2017-08-19T04:53:55.100Z,16.04
2017-08-19T04:54:23.121Z,16.07
2017-08-19T04:54:51.316Z,16.16
2017-08-19T04:55:19.583Z,16.07
2017-08-19T04:55:47.841Z,16.11
2017-08-19T04:56:15.978Z,16
2017-08-19T04:56:44.163Z,16.08
2017-08-19T04:57:12.271Z,16.14
2017-08-19T04:57:40.496Z,16
2017-08-19T04:58:08.788Z,16.1
2017-08-19T04:58:37.001Z,16
2017-08-19T04:59:05.014Z,16.06
2017-08-19T04:59:33.237Z,16.11
2017-08-19T05:00:01.035Z,16.18
2017-08-19T05:00:29.049Z,16.16
2017-08-19T05:00:57.299Z,16.07
2017-08-19T05:01:25.490Z,16.18
2017-08-19T05:01:53.715Z,16.14
2017-08-19T05:02:21.755Z,16.06
2017-08-19T05:02:49.910Z,16.14
2017-08-19T05:03:18.229Z,16.16
2017-08-19T05:03:46.302Z,16.13
2017-08-19T05:04:14.544Z,16.14
2017-08-19T05:04:42.566Z,16.14
2017-08-19T05:05:10.840Z,16.11
2017-08-19T05:05:38.886Z,16.16
2017-08-19T05:06:06.979Z,16.14
2017-08-19T05:06:35.017Z,16.1
2017-08-19T05:07:03.004Z,16.16
2017-08-19T05:07:31.030Z,16.17
2017-08-19T05:07:59.325Z,16.1
2017-08-19T05:08:27.480Z,16.11
2017-08-19T05:08:55.683Z,16.1
2017-08-19T05:09:23.803Z,16.16
2017-08-19T05:09:51.992Z,16.1
2017-08-19T05:10:20.255Z,16.13
2017-08-19T05:10:48.401Z,16.11
2017-08-19T05:11:16.528Z,16.11
2017-08-19T05:11:44.684Z,16.11
2017-08-19T05:12:12.880Z,16.13
2017-08-19T05:12:41.084Z,16.16
2017-08-19T05:13:09.372Z,16.1
2017-08-19T05:13:37.606Z,16.11
2017-08-19T05:14:05.737Z,16.13
2017-08-19T05:14:33.971Z,16.1
2017-08-19T05:15:02.202Z,16.11
2017-08-19T05:15:30.287Z,16.14
2017-08-19T05:15:58.415Z,16.11
2017-08-19T05:16:26.490Z,16.18
2017-08-19T05:16:54.629Z,16.18
2017-08-19T05:17:22.769Z,16.14
2017-08-19T05:17:51.044Z,16.14
2017-08-19T05:18:19.359Z,16.13
2017-08-19T05:18:47.618Z,16.07
2017-08-19T05:19:15.766Z,16.14
2017-08-19T05:19:43.818Z,16.22
2017-08-19T05:20:12.059Z,16.11
2017-08-19T05:20:40.219Z,16.17
2017-08-19T05:21:08.469Z,16.14
2017-08-19T05:21:36.690Z,16.18
2017-08-19T05:22:04.812Z,16.16
2017-08-19T05:22:33.066Z,16.14
2017-08-19T05:23:01.127Z,16.1
2017-08-19T05:23:29.377Z,16.08
2017-08-19T05:23:57.485Z,16.11
2017-08-19T05:24:25.686Z,16.11
2017-08-19T05:24:53.923Z,16.11
2017-08-19T05:25:22.038Z,16.11
2017-08-19T05:25:50.170Z,16.13
2017-08-19T05:26:18.199Z,16.16
2017-08-19T05:26:46.288Z,16.14
2017-08-19T05:27:14.441Z,16.14
2017-08-19T05:27:42.600Z,16.02
2017-08-19T05:28:10.641Z,16.17
2017-08-19T05:28:39.009Z,16.13
2017-08-19T05:29:07.025Z,16.13
2017-08-19T05:29:35.164Z,16.1
2017-08-19T05:30:03.399Z,16.11
2017-08-19T05:30:31.470Z,16.11
2017-08-19T05:30:59.612Z,16.14
2017-08-19T05:31:27.614Z,16.13
2017-08-19T05:31:55.693Z,16.1
2017-08-19T05:32:23.839Z,16.13
2017-08-19T05:32:51.791Z,16.11
2017-08-19T05:33:19.890Z,16.11
2017-08-19T05:33:48.153Z,16.18
2017-08-19T05:34:16.272Z,16.17
2017-08-19T05:34:44.509Z,16.25
2017-08-19T05:35:12.568Z,16.13
2017-08-19T05:35:40.550Z,16.18
2017-08-19T05:36:08.653Z,16.25
2017-08-19T05:36:36.766Z,16.22
2017-08-19T05:37:04.739Z,16.25
2017-08-19T05:37:32.916Z,16.21
2017-08-19T05:38:01.023Z,16.3
2017-08-19T05:38:29.250Z,16.26
2017-08-19T05:38:57.164Z,16.3
2017-08-19T05:39:25.402Z,16.27
2017-08-19T05:39:53.687Z,16.29
2017-08-19T05:40:21.690Z,16.32
2017-08-19T05:40:49.721Z,16.37
2017-08-19T05:41:17.884Z,16.39
2017-08-19T05:41:45.874Z,16.33
2017-08-19T05:42:14.123Z,16.32
2017-08-19T05:42:42.250Z,16.3
2017-08-19T05:43:10.507Z,16.33
2017-08-19T05:43:38.647Z,16.36
2017-08-19T05:44:06.787Z,16.37
2017-08-19T05:44:34.821Z,16.39
2017-08-19T05:45:02.936Z,16.42
2017-08-19T05:45:31.010Z,16.47
2017-08-19T05:45:58.962Z,16.45
2017-08-19T05:46:27.178Z,16.42
2017-08-19T05:46:55.281Z,16.4
2017-08-19T05:47:23.421Z,16.39
2017-08-19T05:47:51.500Z,16.42
2017-08-19T05:48:19.745Z,16.44
2017-08-19T05:48:48.011Z,16.52
2017-08-19T05:49:16.164Z,16.42
2017-08-19T05:49:44.290Z,16.48
2017-08-19T05:50:12.308Z,16.52
2017-08-19T05:50:40.587Z,16.55
2017-08-19T05:51:08.621Z,16.47
2017-08-19T05:51:36.667Z,16.51
2017-08-19T05:52:04.676Z,16.42
2017-08-19T05:52:32.885Z,16.48
2017-08-19T05:53:01.016Z,16.51
2017-08-19T05:53:29.096Z,16.51
2017-08-19T05:53:57.418Z,16.55
2017-08-19T05:54:25.551Z,16.55
2017-08-19T05:54:53.688Z,16.55
2017-08-19T05:55:21.783Z,16.48
2017-08-19T05:55:49.921Z,16.55
2017-08-19T05:56:17.955Z,16.55
2017-08-19T05:56:46.004Z,16.54
2017-08-19T05:57:14.059Z,16.54
2017-08-19T05:57:42.181Z,16.57
2017-08-19T05:58:10.389Z,16.59
2017-08-19T05:58:38.627Z,16.58
2017-08-19T05:59:06.843Z,16.59
2017-08-19T05:59:34.952Z,16.55
2017-08-19T06:00:03.092Z,16.58
2017-08-19T06:00:31.339Z,16.58
2017-08-19T06:00:59.470Z,16.54
2017-08-19T06:01:27.631Z,16.59
2017-08-19T06:01:55.758Z,16.51
2017-08-19T06:02:23.915Z,16.55
2017-08-19T06:02:51.967Z,16.59
2017-08-19T06:03:20.087Z,16.51
2017-08-19T06:03:48.280Z,16.62